Reynolds, Nebraska
Current Conditions -  °F | °C
As of 2:55 PM on Saturday 25 Oct 2014 (Local Time) from KHJH Reporting Station
Clear Clear  
Wind Chill: 79°   Ceiling: Unl
Heat Index: 79°   Visibility: 10mi
Dew Point: 43°   Wind: 3mph
Humidity: 29%   Direction: 110°ESE
Pressure: 30.04"   Gusts: NA
Location:  40.06°N, 97.34°W
Report Text: KHJH 251955Z AUTO 11003KT 10SM CLR 26/06 A3004 RMK AO2 T02590063
Loading
Personal Weather Stations






























Interactive Weather Map New forecast layout! Learn more

10-Day Weather Forecast

Advertisements
Track Severe Weather on mobile